createdAt,value
2022-12-05T00:00:21.537Z,101648.28
2022-12-05T00:05:25.275Z,101652.59
2022-12-05T00:10:29.009Z,101656.03
2022-12-05T00:15:37.830Z,101657.84
2022-12-05T00:20:46.401Z,101659.78
2022-12-05T00:25:50.159Z,101659.16
2022-12-05T00:30:55.157Z,101655.97
2022-12-05T00:36:03.155Z,101656.87
2022-12-05T00:41:08.010Z,101653.41
2022-12-05T00:46:15.255Z,101645.28
2022-12-05T00:51:21.395Z,101640.81
2022-12-05T00:56:26.694Z,101636.44
2022-12-05T01:01:34.191Z,101646.78
2022-12-05T01:06:38.592Z,101634.91
2022-12-05T01:11:42.869Z,101641.94
2022-12-05T01:16:50.142Z,101638.75
2022-12-05T01:21:55.002Z,101641.31
2022-12-05T01:26:59.058Z,101648.34
2022-12-05T01:32:04.797Z,101657.06
2022-12-05T01:37:08.954Z,101658.09
2022-12-05T01:42:13.365Z,101660.78
2022-12-05T01:47:20.025Z,101665.13
2022-12-05T01:52:26.266Z,101671.00
2022-12-05T01:57:30.274Z,101676.38
2022-12-05T02:02:35.375Z,101677.00
2022-12-05T02:07:41.677Z,101679.19
2022-12-05T02:12:46.497Z,101681.25
2022-12-05T02:18:02.647Z,101685.47
2022-12-05T02:23:54.718Z,101682.16
2022-12-05T02:29:44.641Z,101672.06
2022-12-05T02:34:59.640Z,101675.53
2022-12-05T02:40:12.108Z,101681.37
2022-12-05T02:45:19.913Z,101676.25
2022-12-05T02:50:27.079Z,101677.94
2022-12-05T02:55:32.911Z,101678.81
2022-12-05T03:00:41.022Z,101683.19
2022-12-05T03:05:48.405Z,101687.41
2022-12-05T03:10:54.074Z,101688.03
2022-12-05T03:16:04.038Z,101691.88
2022-12-05T03:21:18.782Z,101684.22
2022-12-05T03:26:38.335Z,101690.34
2022-12-05T03:31:50.305Z,101685.22
2022-12-05T03:36:55.587Z,101692.16
2022-12-05T03:42:04.875Z,101683.28
2022-12-05T03:47:18.518Z,101687.94
2022-12-05T03:52:28.386Z,101687.19
2022-12-05T03:57:35.629Z,101688.06
2022-12-05T04:02:46.301Z,101691.66
2022-12-05T04:07:54.863Z,101685.78
2022-12-05T04:13:17.862Z,101686.56
2022-12-05T04:18:26.098Z,101691.78
2022-12-05T04:23:29.956Z,101698.56
2022-12-05T04:28:39.397Z,101700.47
2022-12-05T04:33:47.870Z,101697.53
2022-12-05T04:38:54.862Z,101699.44
2022-12-05T04:44:02.806Z,101702.00
2022-12-05T04:49:12.668Z,101709.03
2022-12-05T04:54:20.972Z,101708.16
2022-12-05T04:59:24.702Z,101715.03
2022-12-05T05:04:34.977Z,101712.47
2022-12-05T05:09:40.106Z,101710.97
2022-12-05T05:14:43.914Z,101707.78
2022-12-05T05:19:48.954Z,101707.91
2022-12-05T05:24:52.700Z,101718.53
2022-12-05T05:29:56.804Z,101712.53
2022-12-05T05:35:02.073Z,101712.66
2022-12-05T05:40:10.956Z,101723.50
2022-12-05T05:45:16.561Z,101715.50
2022-12-05T05:50:22.190Z,101711.37
2022-12-05T05:55:25.996Z,101723.56
2022-12-05T06:00:29.691Z,101728.69
2022-12-05T06:05:34.779Z,101729.56
2022-12-05T06:10:39.662Z,101733.91
2022-12-05T06:15:43.376Z,101729.06
2022-12-05T06:20:54.496Z,101734.47
2022-12-05T06:25:58.527Z,101739.56
2022-12-05T06:31:08.696Z,101732.94
2022-12-05T06:36:16.186Z,101737.28
2022-12-05T06:41:21.385Z,101744.94
2022-12-05T06:46:26.234Z,101746.72
2022-12-05T06:51:31.327Z,101747.00
2022-12-05T06:56:35.269Z,101748.53
2022-12-05T07:01:42.918Z,101744.47
2022-12-05T07:06:50.962Z,101750.31
2022-12-05T07:11:54.831Z,101760.81
2022-12-05T07:16:58.559Z,101766.94
2022-12-05T07:22:03.842Z,101770.53
2022-12-05T07:27:07.681Z,101771.44
2022-12-05T07:32:11.668Z,101778.44
2022-12-05T07:37:16.799Z,101782.44
2022-12-05T07:42:20.536Z,101782.69
2022-12-05T07:47:24.313Z,101783.59
2022-12-05T07:52:29.831Z,101787.31
2022-12-05T07:57:33.541Z,101789.00
2022-12-05T08:02:40.652Z,101801.25
2022-12-05T08:07:46.191Z,101797.19
2022-12-05T08:12:49.927Z,101812.78
2022-12-05T08:17:53.783Z,101809.09
2022-12-05T08:22:58.854Z,101826.50
2022-12-05T08:28:02.583Z,101818.19
2022-12-05T08:33:06.289Z,101820.13
2022-12-05T08:38:11.462Z,101828.81
2022-12-05T08:43:15.182Z,101834.06
2022-12-05T08:48:18.885Z,101829.97
2022-12-05T08:53:24.032Z,101831.00
2022-12-05T08:58:27.800Z,101831.16
2022-12-05T09:03:31.540Z,101834.09
2022-12-05T09:08:36.975Z,101840.75
2022-12-05T09:13:41.147Z,101841.91
2022-12-05T09:18:45.963Z,101851.50
2022-12-05T09:23:51.465Z,101860.84
2022-12-05T09:28:55.586Z,101856.75
2022-12-05T09:33:59.491Z,101864.84
2022-12-05T09:39:07.147Z,101871.00
2022-12-05T09:44:18.683Z,101870.37
2022-12-05T09:49:24.421Z,101876.63
2022-12-05T09:54:29.763Z,101871.75
2022-12-05T09:59:33.467Z,101874.63
2022-12-05T10:05:00.148Z,101874.63
2022-12-05T10:10:22.554Z,101877.91
2022-12-05T10:15:32.730Z,101882.28
2022-12-05T10:20:44.280Z,101875.50
2022-12-05T10:25:52.603Z,101878.31
2022-12-05T10:31:01.682Z,101875.00
2022-12-05T10:36:12.182Z,101877.56
2022-12-05T10:41:17.825Z,101880.25
2022-12-05T10:46:21.615Z,101882.94
2022-12-05T10:51:35.660Z,101880.78
2022-12-05T10:56:45.631Z,101888.47
2022-12-05T11:01:50.369Z,101886.41
2022-12-05T11:06:58.197Z,101886.56
2022-12-05T11:12:07.814Z,101883.34
2022-12-05T11:17:26.178Z,101878.50
2022-12-05T11:22:35.069Z,101870.06
2022-12-05T11:27:40.120Z,101871.97
2022-12-05T11:32:43.849Z,101866.84
2022-12-05T11:37:53.190Z,101865.94
2022-12-05T11:43:24.568Z,101864.28
2022-12-05T11:48:56.770Z,101872.62
2022-12-05T11:54:56.732Z,101876.81
2022-12-05T12:00:14.018Z,101877.59
2022-12-05T12:05:26.468Z,101877.59
2022-12-05T12:10:38.779Z,101881.94
2022-12-05T12:15:58.901Z,101876.31
2022-12-05T12:21:17.383Z,101868.78
2022-12-05T12:26:28.638Z,101874.41
2022-12-05T12:31:45.045Z,101869.81
2022-12-05T12:36:55.054Z,101869.91
2022-12-05T12:42:14.403Z,101868.41
2022-12-05T12:47:30.765Z,101866.09
2022-12-05T12:52:51.659Z,101863.56
2022-12-05T12:58:07.729Z,101857.50
2022-12-05T13:03:18.545Z,101848.94
2022-12-05T13:08:28.430Z,101845.88
2022-12-05T13:13:37.485Z,101838.28
2022-12-05T13:18:42.675Z,101837.53
2022-12-05T13:23:49.824Z,101837.53
2022-12-05T13:28:56.022Z,101835.84
2022-12-05T13:34:01.087Z,101842.66
2022-12-05T13:39:24.899Z,101836.87
2022-12-05T13:44:34.315Z,101833.53
2022-12-05T13:49:46.318Z,101833.69
2022-12-05T13:54:57.453Z,101838.81
2022-12-05T14:00:05.841Z,101836.38
2022-12-05T14:05:42.234Z,101843.44
2022-12-05T14:11:16.253Z,101838.31
2022-12-05T14:16:47.963Z,101845.34
2022-12-05T14:22:01.726Z,101848.66
2022-12-05T14:27:11.897Z,101852.12
2022-12-05T14:32:24.478Z,101847.91
2022-12-05T14:37:32.523Z,101859.19
2022-12-05T14:42:40.092Z,101857.50
2022-12-05T14:47:52.669Z,101859.44
2022-12-05T14:53:30.237Z,101859.28
2022-12-05T14:58:38.618Z,101862.00
2022-12-05T15:04:00.456Z,101866.97
2022-12-05T15:09:35.924Z,101865.31
2022-12-05T15:14:40.999Z,101864.31
2022-12-05T15:19:50.460Z,101868.66
2022-12-05T15:24:55.791Z,101877.37
2022-12-05T15:29:59.505Z,101870.72
2022-12-05T15:35:09.054Z,101881.22
2022-12-05T15:40:17.864Z,101875.31
2022-12-05T15:45:24.933Z,101878.78
2022-12-05T15:50:34.812Z,101875.19
2022-12-05T15:55:43.337Z,101878.78
2022-12-05T16:00:51.929Z,101886.72
2022-12-05T16:05:59.286Z,101881.34
2022-12-05T16:11:09.992Z,101881.22
2022-12-05T16:16:18.766Z,101888.41
2022-12-05T16:21:38.591Z,101885.94
2022-12-05T16:26:44.370Z,101895.31
2022-12-05T16:31:54.945Z,101903.00
2022-12-05T16:36:59.143Z,101898.91
2022-12-05T16:42:05.109Z,101898.91
2022-12-05T16:47:23.486Z,101899.66
2022-12-05T16:52:32.266Z,101903.12
2022-12-05T16:57:37.353Z,101905.81
2022-12-05T17:02:41.046Z,101906.69
2022-12-05T17:07:44.768Z,101911.72
2022-12-05T17:12:49.936Z,101915.03
2022-12-05T17:17:53.744Z,101907.22
2022-12-05T17:22:57.395Z,101907.47
2022-12-05T17:28:02.487Z,101905.81
2022-12-05T17:33:06.248Z,101911.81
2022-12-05T17:38:11.185Z,101912.59
2022-12-05T17:43:20.047Z,101910.94
2022-12-05T17:48:27.191Z,101917.72
2022-12-05T17:53:30.949Z,101916.94
2022-12-05T17:58:36.154Z,101924.63
2022-12-05T18:03:39.925Z,101929.03
2022-12-05T18:08:44.929Z,101946.97
2022-12-05T18:13:50.418Z,101933.12
2022-12-05T18:18:55.133Z,101941.84
2022-12-05T18:23:59.759Z,101942.09
2022-12-05T18:29:04.872Z,101940.16
2022-12-05T18:34:08.638Z,101948.75
2022-12-05T18:39:14.891Z,101949.66
2022-12-05T18:44:19.950Z,101947.09
2022-12-05T18:49:24.136Z,101948.09
2022-12-05T18:54:27.820Z,101952.47
2022-12-05T18:59:32.890Z,101952.59
2022-12-05T19:04:36.812Z,101957.72
2022-12-05T19:09:40.592Z,101956.81
2022-12-05T19:14:47.543Z,101965.41
2022-12-05T19:19:52.271Z,101969.53
2022-12-05T19:24:56.055Z,101965.41
2022-12-05T19:30:06.445Z,101977.34
2022-12-05T19:35:13.075Z,101980.69
2022-12-05T19:40:17.152Z,101987.59
2022-12-05T19:45:22.242Z,101994.53
2022-12-05T19:50:25.975Z,101994.62
2022-12-05T19:55:30.792Z,101992.22
2022-12-05T20:00:35.867Z,101990.53
2022-12-05T20:05:39.614Z,101990.69
2022-12-05T20:10:43.803Z,101996.56
2022-12-05T20:15:49.377Z,101994.91
2022-12-05T20:20:57.726Z,101995.66
2022-12-05T20:26:03.550Z,101993.88
2022-12-05T20:31:10.921Z,102000.81
2022-12-05T20:36:16.057Z,101991.44
2022-12-05T20:41:20.066Z,101987.97
2022-12-05T20:46:25.408Z,101992.34
2022-12-05T20:51:30.959Z,101985.41
2022-12-05T20:56:35.922Z,101988.75
2022-12-05T21:01:41.345Z,101980.28
2022-12-05T21:06:46.601Z,101983.63
2022-12-05T21:11:50.378Z,101981.06
2022-12-05T21:16:55.795Z,101984.53
2022-12-05T21:21:59.626Z,101989.50
2022-12-05T21:27:03.362Z,101987.97
2022-12-05T21:32:09.656Z,101986.44
2022-12-05T21:37:13.445Z,101982.22
2022-12-05T21:42:18.143Z,101989.00
2022-12-05T21:47:23.201Z,101980.28
2022-12-05T21:52:26.911Z,101988.12
2022-12-05T21:57:32.098Z,101994.78
2022-12-05T22:02:37.329Z,101995.81
2022-12-05T22:07:41.471Z,102000.16
2022-12-05T22:12:45.827Z,102001.06
2022-12-05T22:17:50.843Z,101998.47
2022-12-05T22:22:54.576Z,102003.75
2022-12-05T22:27:58.350Z,102004.66
2022-12-05T22:33:03.391Z,102002.09
2022-12-05T22:38:07.164Z,101992.47
2022-12-05T22:43:10.881Z,101995.81
2022-12-05T22:48:15.952Z,102000.66
2022-12-05T22:53:20.732Z,102003.37
2022-12-05T22:58:24.542Z,102003.50
2022-12-05T23:03:30.012Z,101994.91
2022-12-05T23:08:34.384Z,101997.47
2022-12-05T23:13:40.525Z,101993.25
2022-12-05T23:18:48.877Z,101996.69
2022-12-05T23:23:54.960Z,102002.72
2022-12-05T23:28:59.282Z,101994.12
2022-12-05T23:34:05.192Z,101995.81
2022-12-05T23:39:09.353Z,101992.47
2022-12-05T23:44:13.544Z,101990.03
2022-12-05T23:49:19.186Z,101980.69
2022-12-05T23:54:23.245Z,101985.03
2022-12-05T23:59:27.388Z,101982.22
